Impacts METAR Board INFO
IDs:

KSLC - Salt Lake City Intl, UT, US

Updated at: 1540 UTC 23 Jan 2018
Potential Impact None Slight Moderate High
Time23/03Z 23/04Z 23/05Z 23/06Z 23/07Z 23/08Z 23/09Z 23/10Z 23/11Z 23/12Z 23/13Z 23/14Z 23/15Z
VIS10 10 9 10 10 10 10 10 10 10 10 10 10
CIG60 55 41 28 -- -- 60 60 -- 60 60 60 60
CoverBKNBKNOVCBKNSCTFEWBKNBKNSCTBKNBKNBKNBKN
FltCatVFRVFRVFRMVFRVFRVFRVFRVFRVFRVFRVFRVFRVFR
WX--------------------------
WDir1400200170180180130130110130160140170
WSpd4 0 4 6 5 4 5 5 5 6 5 4 5
WGst-- -- -- -- -- -- -- -- -- -- -- -- --
Raw hourly METARs
KSLC 230254Z 14004KT 10SM BKN060 BKN075 BKN090 02/M07 A3030 RMK AO2 SLP277 T00171072 53006
KSLC 230354Z 00000KT 10SM BKN055 BKN070 02/M07 A3031 RMK AO2 SLP281 T00171067
KSLC 230454Z 20004KT 9SM FEW024 OVC041 00/M03 A3034 RMK AO2 SNB22E49 SLP289 P0000 T00001033
KSLC 230604Z 17006KT 10SM BKN028 BKN041 00/M04 A3034 RMK AO2 T00001039
KSLC 230654Z 18005KT 10SM FEW044 SCT070 SCT080 M01/M04 A3034 RMK AO2 SLP288 T10061039 400171044
KSLC 230754Z 18004KT 10SM FEW070 FEW080 M02/M04 A3033 RMK AO2 SLP286 T10171044
KSLC 230854Z 13005KT 10SM BKN060 M01/M04 A3032 RMK AO2 SLP283 T10111039 58005
KSLC 230954Z 13005KT 10SM BKN060 M02/M04 A3032 RMK AO2 SLP283 T10171039
KSLC 231054Z 11005KT 10SM SCT060 M03/M05 A3034 RMK AO2 SLP289 T10281050
KSLC 231154Z 13006KT 10SM BKN060 M01/M04 A3034 RMK AO2 SLP287 4/004 T10111044 10000 21028 50003
KSLC 231254Z 16005KT 10SM FEW045 BKN060 M01/M04 A3035 RMK AO2 SLP289 T10061044
KSLC 231354Z 14004KT 10SM FEW045 BKN060 M01/M04 A3035 RMK AO2 SLP290 T10061044
KSLC 231454Z 17005KT 10SM FEW050 BKN060 M01/M04 A3035 RMK AO2 SLP290 T10061044 51005